Time;durP1;ratioP1;P1;durP2;ratioP2;P2;SDS_P1;SDS_P2;PMS_P1;PMS_P2;Temp;Humidity;BMP_temperature;BMP_pressure;BME280_temperature;BME280_humidity;BME280_pressure;Samples;Min_cycle;Max_cycle;Signal;HPM_P1;HPM_P2
2021/03/28 00:00:13;;;;;;;5.63;3.38;;;;;;;3.26;64.44;93868.19;2065116;69;20163;-81
2021/03/28 00:03:01;;;;;;;5.40;3.20;;;;;;;3.38;65.85;93861.09;2065074;69;20176;-81
2021/03/28 00:05:30;;;;;;;6.35;3.80;;;;;;;3.36;66.13;93865.72;2065046;69;20148;-81
2021/03/28 00:08:15;;;;;;;5.32;2.97;;;;;;;3.30;65.42;93872.13;2065131;69;20151;-80
2021/03/28 00:10:45;;;;;;;5.43;3.25;;;;;;;3.33;65.55;93869.56;2065083;69;20152;-80
2021/03/28 00:13:17;;;;;;;5.53;3.42;;;;;;;3.13;65.33;93879.31;2065045;69;20156;-81
2021/03/28 00:15:56;;;;;;;6.97;3.90;;;;;;;3.25;65.92;93870.22;2065031;69;20152;-81
2021/03/28 00:18:26;;;;;;;5.32;3.55;;;;;;;3.29;66.39;93875.44;2065075;69;20220;-77
2021/03/28 00:21:16;;;;;;;4.72;3.28;;;;;;;3.15;66.63;93877.47;2064987;69;20597;-75
2021/03/28 00:23:48;;;;;;;6.13;3.30;;;;;;;3.01;67.03;93868.38;2064938;69;20145;-74
2021/03/28 00:26:26;;;;;;;8.07;3.50;;;;;;;3.19;66.64;93879.94;2065066;69;20151;-75
2021/03/28 00:29:22;;;;;;;6.18;3.58;;;;;;;3.22;66.61;93870.53;2065077;69;20185;-78
2021/03/28 00:32:07;;;;;;;5.53;3.20;;;;;;;3.18;66.08;93872.88;2065143;69;20338;-79
2021/03/28 00:34:40;;;;;;;5.60;2.92;;;;;;;3.01;65.31;93868.38;2065032;69;20142;-77
2021/03/28 00:37:08;;;;;;;7.43;3.40;;;;;;;3.05;66.72;93871.59;2065005;69;20648;-78
2021/03/28 00:39:53;;;;;;;6.45;3.42;;;;;;;2.98;66.51;93866.66;2064831;69;20603;-74
2021/03/28 00:43:26;;;;;;;4.60;3.17;;;;;;;3.08;65.76;93869.03;2064994;69;20299;-78
2021/03/28 00:45:57;;;;;;;4.15;3.25;;;;;;;2.95;65.22;93875.31;2049011;70;20246;-72
2021/03/28 00:48:26;;;;;;;6.25;3.22;;;;;;;2.91;66.42;93872.84;2050787;70;20150;-78
2021/03/28 00:51:07;;;;;;;4.90;2.97;;;;;;;3.08;66.02;93878.13;2057783;69;20220;-74
2021/03/28 00:53:55;;;;;;;5.75;3.45;;;;;;;2.88;66.27;93881.50;2064920;69;20603;-81
2021/03/28 00:56:41;;;;;;;4.15;2.65;;;;;;;2.79;66.74;93872.31;2059106;69;20149;-79
2021/03/28 00:59:30;;;;;;;5.55;3.38;;;;;;;2.77;67.74;93877.63;2061537;69;20173;-78
2021/03/28 01:02:26;;;;;;;8.30;3.35;;;;;;;2.66;67.41;93872.28;2064817;69;20552;-75
2021/03/28 01:05:01;;;;;;;5.57;3.28;;;;;;;2.73;66.84;93868.09;2064799;69;20222;-74
2021/03/28 01:07:38;;;;;;;7.03;3.63;;;;;;;2.65;66.76;93870.00;2061697;69;20141;-80
2021/03/28 01:10:23;;;;;;;7.30;3.28;;;;;;;2.71;67.40;93870.69;2064904;69;20137;-81
2021/03/28 01:12:51;;;;;;;4.32;2.67;;;;;;;2.85;66.90;93863.88;2061597;69;20211;-80
2021/03/28 01:15:47;;;;;;;4.05;2.50;;;;;;;2.80;66.51;93861.94;2064997;69;20153;-78
2021/03/28 01:18:28;;;;;;;6.57;3.25;;;;;;;2.35;67.75;93864.69;2064767;69;20176;-76
2021/03/28 01:20:54;;;;;;;7.68;4.30;;;;;;;2.58;67.69;93865.84;2064976;69;20161;-80
2021/03/28 01:23:30;;;;;;;8.38;4.40;;;;;;;2.49;66.97;93858.66;2064785;69;20175;-80
2021/03/28 01:26:09;;;;;;;7.03;3.88;;;;;;;2.38;66.84;93858.06;2064902;69;20141;-75
2021/03/28 01:28:55;;;;;;;6.07;3.40;;;;;;;2.33;67.72;93848.53;2065730;69;20129;-77
2021/03/28 01:31:24;;;;;;;5.25;3.22;;;;;;;2.59;68.55;93861.78;2064635;69;20200;-77
2021/03/28 01:33:56;;;;;;;3.20;2.55;;;;;;;2.82;66.97;93847.47;2064909;69;20168;-78
2021/03/28 01:36:32;;;;;;;4.97;2.75;;;;;;;2.84;65.97;93854.03;2064906;69;20157;-73
2021/03/28 01:39:12;;;;;;;6.53;2.90;;;;;;;2.62;67.17;93855.16;2064747;69;20149;-78
2021/03/28 01:42:08;;;;;;;4.03;2.70;;;;;;;2.21;68.46;93852.78;2064809;69;20143;-75
2021/03/28 01:44:40;;;;;;;3.40;2.63;;;;;;;2.54;67.39;93852.25;2064779;69;20137;-79
2021/03/28 01:47:36;;;;;;;5.38;2.63;;;;;;;2.57;66.91;93858.00;2064842;69;20213;-80
2021/03/28 01:50:23;;;;;;;4.25;2.38;;;;;;;2.59;66.95;93845.09;2064894;69;20145;-80
2021/03/28 01:53:07;;;;;;;3.60;2.55;;;;;;;2.52;67.38;93856.81;2064822;69;20200;-79
2021/03/28 01:55:43;;;;;;;4.82;2.72;;;;;;;2.43;67.36;93857.22;2064907;69;20141;-80
2021/03/28 01:58:15;;;;;;;6.38;2.70;;;;;;;2.56;66.59;93851.69;2064889;69;20382;-80
2021/03/28 02:01:05;;;;;;;3.60;2.45;;;;;;;2.66;67.34;93850.03;2064823;69;20141;-80
2021/03/28 02:03:48;;;;;;;4.80;2.65;;;;;;;2.75;65.97;93854.44;2064919;69;20164;-76
2021/03/28 02:06:25;;;;;;;6.03;2.80;;;;;;;2.85;65.63;93854.78;2064835;69;20140;-79
2021/03/28 02:08:57;;;;;;;6.05;2.45;;;;;;;2.59;65.74;93850.66;2064820;69;20145;-79
2021/03/28 02:11:48;;;;;;;4.35;2.90;;;;;;;2.60;66.37;93857.69;2064844;69;20244;-80
2021/03/28 02:14:32;;;;;;;4.15;2.75;;;;;;;2.45;66.31;93863.00;2065099;69;20537;-73
2021/03/28 02:17:23;;;;;;;6.88;3.25;;;;;;;2.55;66.12;93853.00;2061744;69;20170;-72
2021/03/28 02:20:01;;;;;;;4.43;2.70;;;;;;;2.58;66.32;93857.50;2061772;69;20679;-75
2021/03/28 02:22:39;;;;;;;5.03;2.95;;;;;;;2.36;68.28;93861.38;2064425;69;20189;-81
2021/03/28 02:25:08;;;;;;;4.47;2.80;;;;;;;2.49;67.18;93861.44;2064795;69;20232;-76
2021/03/28 02:27:58;;;;;;;5.70;2.97;;;;;;;2.31;66.79;93862.22;2065099;69;20153;-76
2021/03/28 02:30:27;;;;;;;6.78;2.95;;;;;;;2.28;67.77;93854.94;2064944;69;20585;-80
2021/03/28 02:33:11;;;;;;;5.63;2.90;;;;;;;2.02;67.75;93855.59;2064874;69;20163;-81
2021/03/28 02:36:19;;;;;;;4.00;2.50;;;;;;;2.23;67.75;93862.06;2061623;69;20601;-80
2021/03/28 02:39:12;;;;;;;5.07;3.00;;;;;;;2.23;67.78;93853.00;2050220;70;20158;-81
2021/03/28 02:41:49;;;;;;;;;;;;;;;1.99;68.48;93851.84;2050528;70;20242;-81
2021/03/28 02:44:59;;;;;;;4.75;2.60;;;;;;;2.03;67.80;93851.53;2050466;70;20058;-79
2021/03/28 02:47:51;;;;;;;5.32;2.85;;;;;;;2.02;68.62;93850.03;2049284;70;20150;-81
2021/03/28 02:50:44;;;;;;;5.00;2.58;;;;;;;2.09;68.56;93848.66;2050649;70;20167;-75
2021/03/28 02:53:40;;;;;;;4.28;2.80;;;;;;;2.17;66.92;93844.75;2050347;70;20196;-73
2021/03/28 02:56:24;;;;;;;6.05;2.90;;;;;;;2.16;68.04;93842.50;2050505;70;20237;-71
2021/03/28 02:59:08;;;;;;;4.88;2.70;;;;;;;2.13;67.05;93846.34;2050530;70;20199;-75
2021/03/28 03:01:45;;;;;;;3.28;2.47;;;;;;;2.07;67.46;93838.09;2050475;70;20142;-80
2021/03/28 03:04:19;;;;;;;4.45;2.78;;;;;;;2.07;68.05;93843.66;2051394;70;20151;-79
2021/03/28 03:07:17;;;;;;;5.15;2.90;;;;;;;1.96;68.05;93835.47;2050614;70;20229;-80
2021/03/28 03:10:07;;;;;;;3.85;2.70;;;;;;;2.06;69.08;93831.00;2046635;70;20308;-77
2021/03/28 03:12:35;;;;;;;4.35;2.80;;;;;;;2.01;68.11;93832.59;2050507;70;20143;-79
2021/03/28 03:15:16;;;;;;;4.03;2.50;;;;;;;1.98;67.02;93833.69;2059599;69;20141;-74
2021/03/28 03:17:44;;;;;;;7.03;3.00;;;;;;;1.88;68.31;93826.25;2061483;69;20129;-75
2021/03/28 03:20:29;;;;;;;6.63;2.80;;;;;;;1.89;67.52;93836.84;2061467;69;20165;-75
2021/03/28 03:23:22;;;;;;;4.90;2.88;;;;;;;1.85;66.99;93830.84;2061461;69;20150;-74
2021/03/28 03:25:59;;;;;;;5.65;3.00;;;;;;;1.87;66.82;93836.59;2061599;69;20145;-78
2021/03/28 03:28:37;;;;;;;5.45;3.28;;;;;;;1.82;67.58;93839.47;2061607;69;20141;-73
2021/03/28 03:31:25;;;;;;;4.57;2.85;;;;;;;1.73;67.28;93835.03;2061598;69;20554;-80
2021/03/28 03:34:42;;;;;;;5.43;2.92;;;;;;;1.79;68.37;93841.28;2058241;69;20225;-75
2021/03/28 03:37:29;;;;;;;4.60;3.30;;;;;;;1.53;68.37;93842.63;2047027;70;20135;-79
2021/03/28 03:39:57;;;;;;;6.82;3.60;;;;;;;1.61;68.52;93844.81;2061337;69;20179;-72
2021/03/28 03:42:41;;;;;;;5.10;2.92;;;;;;;1.67;68.30;93843.44;2065145;69;20170;-77
2021/03/28 03:45:26;;;;;;;5.80;2.83;;;;;;;1.69;68.19;93842.91;2065303;69;20129;-78
2021/03/28 03:48:12;;;;;;;5.28;2.90;;;;;;;1.69;68.71;93840.88;2065309;69;20136;-72
2021/03/28 03:50:49;;;;;;;5.20;2.97;;;;;;;1.62;68.42;93843.53;2065432;69;20145;-75
2021/03/28 03:53:43;;;;;;;4.68;2.67;;;;;;;1.48;68.67;93845.47;2065267;69;20153;-73
2021/03/28 03:56:18;;;;;;;4.53;3.03;;;;;;;1.50;69.18;93848.47;2065411;69;20165;-72
2021/03/28 03:58:59;;;;;;;7.25;2.78;;;;;;;1.70;68.74;93845.19;2065269;69;20225;-81
2021/03/28 04:01:32;;;;;;;4.15;2.85;;;;;;;1.59;68.80;93848.09;2065469;69;20663;-80
2021/03/28 04:04:07;;;;;;;4.70;3.08;;;;;;;1.51;68.84;93839.63;2065608;69;20244;-78
2021/03/28 04:07:02;;;;;;;5.32;3.20;;;;;;;1.63;69.41;93839.47;2065307;69;20189;-80
2021/03/28 04:09:30;;;;;;;5.88;3.03;;;;;;;1.40;69.56;93847.34;2062924;69;20145;-81
2021/03/28 04:12:25;;;;;;;9.90;3.28;;;;;;;1.43;69.92;93844.25;2065188;69;20146;-77
2021/03/28 04:14:53;;;;;;;3.90;2.97;;;;;;;1.16;70.38;93851.66;2059935;69;20145;-80
2021/03/28 04:17:41;;;;;;;3.80;2.60;;;;;;;1.29;69.21;93845.47;2065259;69;20172;-79
2021/03/28 04:20:26;;;;;;;10.55;3.25;;;;;;;1.34;69.90;93854.97;2065476;69;20613;-76
2021/03/28 04:23:42;;;;;;;5.75;3.60;;;;;;;1.37;69.09;93851.16;2065353;69;20149;-78
2021/03/28 04:26:38;;;;;;;4.95;3.53;;;;;;;1.44;70.07;93851.31;2064001;69;20228;-78
2021/03/28 04:29:11;;;;;;;5.05;3.38;;;;;;;1.48;68.99;93848.25;2065505;69;20153;-81
2021/03/28 04:31:46;;;;;;;;;;;;;;;1.32;68.84;93847.16;2065767;69;20144;-81
2021/03/28 04:34:23;;;;;;;7.25;3.28;;;;;;;1.42;69.30;93844.78;2065232;69;20049;-81
2021/03/28 04:37:10;;;;;;;6.10;3.35;;;;;;;1.40;68.26;93844.56;2062198;69;20244;-79
2021/03/28 04:40:11;;;;;;;6.38;3.67;;;;;;;1.54;68.29;93851.69;2065525;69;20199;-79
2021/03/28 04:42:58;;;;;;;5.82;3.65;;;;;;;1.15;69.86;93841.09;2065303;69;20143;-81
2021/03/28 04:45:42;;;;;;;5.28;3.40;;;;;;;1.29;69.90;93844.72;2065190;69;20600;-76
2021/03/28 04:48:44;;;;;;;7.15;3.58;;;;;;;1.22;68.40;93840.47;2065198;69;20185;-80
2021/03/28 04:51:25;;;;;;;7.45;3.78;;;;;;;1.17;69.57;93844.81;2065334;69;20605;-80
2021/03/28 04:54:18;;;;;;;5.65;3.85;;;;;;;1.17;69.72;93835.75;2064786;69;20144;-79
2021/03/28 04:57:04;;;;;;;7.93;4.35;;;;;;;1.23;70.06;93848.28;2065408;69;20611;-80
2021/03/28 04:59:56;;;;;;;7.30;4.10;;;;;;;1.19;70.14;93842.28;2065191;69;20161;-79
2021/03/28 05:02:47;;;;;;;7.40;4.10;;;;;;;1.01;70.02;93852.06;2065377;69;20137;-81
2021/03/28 05:05:48;;;;;;;5.53;3.50;;;;;;;1.04;69.56;93843.97;2065137;69;20613;-78
2021/03/28 05:08:58;;;;;;;5.28;3.33;;;;;;;1.07;71.03;93852.00;2065056;69;20192;-81
2021/03/28 05:11:48;;;;;;;4.60;3.28;;;;;;;1.06;70.95;93844.22;2050926;70;20142;-82
2021/03/28 05:14:29;;;;;;;6.80;4.30;;;;;;;1.16;70.04;93848.88;2065195;69;20173;-81
2021/03/28 05:17:23;;;;;;;7.38;4.43;;;;;;;1.18;69.29;93845.56;2065268;69;20145;-82
2021/03/28 05:20:14;;;;;;;6.85;3.88;;;;;;;1.09;71.55;93846.69;2065289;69;20148;-80
2021/03/28 05:23:24;;;;;;;6.15;3.90;;;;;;;1.12;69.71;93858.75;2065257;69;20203;-74
2021/03/28 05:26:08;;;;;;;10.25;4.05;;;;;;;1.15;69.39;93860.50;2065119;69;20157;-75
2021/03/28 05:28:36;;;;;;;5.53;3.42;;;;;;;1.23;69.14;93870.47;2061904;69;20176;-75
2021/03/28 05:31:37;;;;;;;5.57;3.65;;;;;;;1.01;69.90;93867.97;2065060;69;20151;-76
2021/03/28 05:34:40;;;;;;;5.35;3.70;;;;;;;1.38;69.01;93869.31;2060897;69;20168;-78
2021/03/28 05:37:06;;;;;;;;;;;;;;;1.32;69.42;93874.91;2065334;69;20509;-73
2021/03/28 05:39:35;;;;;;;9.30;5.20;;;;;;;1.40;68.89;93877.84;2064965;69;20489;-74
2021/03/28 05:42:24;;;;;;;11.25;7.82;;;;;;;1.22;70.10;93882.84;2065073;69;20163;-77
2021/03/28 05:44:59;;;;;;;7.65;5.40;;;;;;;1.38;69.07;93886.72;2065055;69;20217;-73
2021/03/28 05:48:02;;;;;;;6.72;3.90;;;;;;;1.43;69.21;93888.66;2065090;69;20149;-74
2021/03/28 05:51:00;;;;;;;;;;;;;;;1.28;69.83;93888.31;2065310;69;20141;-78
2021/03/28 05:54:03;;;;;;;6.47;5.13;;;;;;;1.47;69.60;93902.25;2050574;70;20483;-75
2021/03/28 05:57:02;;;;;;;7.70;4.82;;;;;;;1.39;69.42;93909.66;2050812;70;20631;-73
2021/03/28 05:59:43;;;;;;;6.30;4.75;;;;;;;1.42;69.40;93903.81;2050886;70;20186;-75
2021/03/28 06:02:20;;;;;;;8.30;5.20;;;;;;;1.20;70.08;93904.06;2050579;70;20169;-75
2021/03/28 06:05:08;;;;;;;8.10;5.47;;;;;;;1.19;68.92;93908.88;2050498;70;20237;-80
2021/03/28 06:08:01;;;;;;;12.00;5.30;;;;;;;1.19;69.62;93916.41;2050800;70;20138;-77
2021/03/28 06:11:19;;;;;;;6.88;5.05;;;;;;;1.40;68.71;93922.25;2050670;70;20514;-76
2021/03/28 06:13:47;;;;;;;9.27;5.88;;;;;;;1.31;69.23;93928.91;2047865;70;20611;-75
2021/03/28 06:16:55;;;;;;;8.60;5.72;;;;;;;1.50;68.98;93934.50;2050530;70;20147;-80
2021/03/28 06:19:39;;;;;;;8.95;6.30;;;;;;;1.25;69.09;93940.06;2050704;70;20245;-77
2021/03/28 06:22:26;;;;;;;6.78;4.38;;;;;;;1.19;69.34;93949.72;2050544;70;20149;-78
2021/03/28 06:25:10;;;;;;;7.22;5.43;;;;;;;1.41;69.88;93954.28;2050462;70;20233;-75
2021/03/28 06:27:48;;;;;;;10.82;5.57;;;;;;;1.32;69.70;93958.16;2050570;70;20256;-74
2021/03/28 06:30:44;;;;;;;16.88;10.05;;;;;;;1.37;70.04;93953.81;2064618;69;20148;-77
2021/03/28 06:33:34;;;;;;;15.38;10.52;;;;;;;1.29;69.87;93950.88;2065020;69;20261;-77
2021/03/28 06:36:13;;;;;;;11.73;7.30;;;;;;;1.29;70.36;93961.97;2064914;69;20556;-80
2021/03/28 06:39:13;;;;;;;8.85;6.55;;;;;;;1.62;69.18;93957.34;2064903;69;20168;-81
2021/03/28 06:41:58;;;;;;;14.32;8.52;;;;;;;1.54;69.93;93965.50;2064968;69;20325;-74
2021/03/28 06:44:40;;;;;;;15.50;10.10;;;;;;;1.59;69.17;93961.16;2064898;69;20203;-79
2021/03/28 06:47:27;;;;;;;21.07;14.97;;;;;;;1.65;69.23;93961.84;2065259;69;20137;-76
2021/03/28 06:50:14;;;;;;;17.70;12.80;;;;;;;1.73;68.90;93963.50;2065006;69;20137;-79
2021/03/28 06:53:25;;;;;;;16.80;12.10;;;;;;;1.80;68.92;93969.75;2064872;69;20169;-76
2021/03/28 06:56:16;;;;;;;23.42;12.45;;;;;;;1.83;68.43;93966.66;2064121;69;20150;-76
2021/03/28 06:59:20;;;;;;;13.40;9.35;;;;;;;1.90;69.10;93962.56;2064885;69;20129;-81
2021/03/28 07:02:23;;;;;;;9.85;6.05;;;;;;;2.01;69.46;93979.81;2050389;70;20158;-80
2021/03/28 07:04:54;;;;;;;;;;;;;;;1.57;69.57;93980.38;2050718;70;20150;-81
2021/03/28 07:07:58;;;;;;;19.98;10.88;;;;;;;1.95;68.92;93981.19;2050436;70;20078;-83
2021/03/28 07:10:51;;;;;;;14.73;10.65;;;;;;;2.12;69.15;93972.63;2043571;70;20155;-83
2021/03/28 07:13:16;;;;;;;13.98;8.55;;;;;;;2.51;68.39;93983.94;2043604;70;20614;-82
2021/03/28 07:16:15;;;;;;;13.80;9.07;;;;;;;2.69;68.30;93987.25;2048013;70;20154;-81
2021/03/28 07:19:02;;;;;;;11.68;8.68;;;;;;;2.70;67.37;93991.53;2051054;70;20144;-82
2021/03/28 07:21:59;;;;;;;13.05;8.13;;;;;;;2.65;66.98;93992.34;2051221;70;20153;-83
2021/03/28 07:24:34;;;;;;;12.38;7.93;;;;;;;2.79;66.61;93994.69;2050904;70;20142;-82
2021/03/28 07:27:30;;;;;;;13.52;8.95;;;;;;;4.16;66.50;93995.28;2050918;70;20174;-78
2021/03/28 07:30:25;;;;;;;12.57;8.80;;;;;;;4.29;66.13;94000.84;2051206;70;20140;-83
2021/03/28 07:32:56;;;;;;;14.48;8.10;;;;;;;4.88;63.71;94005.41;2050894;70;20669;-84
2021/03/28 07:35:34;;;;;;;16.35;8.57;;;;;;;4.86;63.00;94003.16;2055658;69;20342;-83
2021/03/28 07:38:18;;;;;;;19.67;9.68;;;;;;;5.23;61.49;94002.03;2065222;69;20148;-83
2021/03/28 07:41:02;;;;;;;29.60;11.98;;;;;;;5.72;59.92;94008.94;2065223;69;20145;-83
2021/03/28 07:43:46;;;;;;;22.13;11.05;;;;;;;5.87;59.56;94014.66;2065354;69;20137;-81
2021/03/28 07:46:47;;;;;;;13.00;7.82;;;;;;;6.38;57.75;94014.03;2065473;69;20129;-84
2021/03/28 07:49:37;;;;;;;15.95;9.35;;;;;;;6.79;56.90;94017.94;2065505;69;20141;-84
2021/03/28 07:52:15;;;;;;;10.02;6.00;;;;;;;7.46;54.67;94023.47;2065265;69;20219;-84
2021/03/28 07:55:05;;;;;;;12.07;6.00;;;;;;;7.50;52.25;94030.22;2065240;69;20168;-77
2021/03/28 07:57:34;;;;;;;11.35;6.15;;;;;;;7.54;53.11;94025.00;2065226;69;20175;-82
2021/03/28 08:00:12;;;;;;;8.88;5.70;;;;;;;8.05;50.68;94040.13;2065261;69;20148;-82
2021/03/28 08:03:05;;;;;;;9.13;4.60;;;;;;;8.71;49.13;94046.75;2065227;69;20153;-81
2021/03/28 08:05:51;;;;;;;12.55;5.55;;;;;;;9.00;50.11;94052.81;2065735;69;20153;-82
2021/03/28 08:08:35;;;;;;;8.25;4.43;;;;;;;9.26;48.66;94052.31;2065294;69;20569;-77
2021/03/28 08:11:43;;;;;;;10.65;6.25;;;;;;;10.43;46.55;94048.81;2065389;69;20144;-87
2021/03/28 08:14:31;;;;;;;6.72;4.47;;;;;;;9.73;47.42;94047.16;2061328;69;20152;-81
2021/03/28 08:17:22;;;;;;;7.70;4.57;;;;;;;10.52;46.26;94039.72;2065640;69;20211;-77
2021/03/28 08:20:16;;;;;;;6.32;3.70;;;;;;;9.87;45.37;94040.66;2065247;69;20148;-78
2021/03/28 08:23:11;;;;;;;;;;;;;;;10.64;45.17;94037.19;2065755;69;20161;-79
2021/03/28 08:26:10;;;;;;;10.77;5.25;;;;;;;10.40;47.43;94039.47;2062159;69;20052;-79
2021/03/28 08:29:23;;;;;;;13.82;5.43;;;;;;;11.62;43.10;94045.69;2065227;69;20252;-78
2021/03/28 08:31:58;;;;;;;4.65;2.92;;;;;;;12.70;40.37;94042.63;2050764;70;20139;-78
2021/03/28 08:35:21;;;;;;;6.95;3.85;;;;;;;13.17;39.34;94043.22;2064191;69;20284;-77
2021/03/28 08:38:14;;;;;;;7.50;2.88;;;;;;;11.77;39.57;94046.78;2054010;69;20156;-75
2021/03/28 08:40:45;;;;;;;4.00;2.80;;;;;;;11.68;40.07;94042.59;2053891;69;20158;-76
2021/03/28 08:43:28;;;;;;;10.05;3.00;;;;;;;12.34;40.81;94051.19;2054172;69;20209;-76
2021/03/28 08:46:12;;;;;;;;;;;;;;;13.86;37.95;94049.50;2052956;70;20146;-75
2021/03/28 08:48:59;;;;;;;9.05;4.68;;;;;;;12.43;37.97;94042.75;2053950;70;20462;-77
2021/03/28 08:51:50;;;;;;;4.32;2.75;;;;;;;13.05;38.53;94042.34;2054149;69;20518;-76
2021/03/28 08:54:34;;;;;;;5.22;2.45;;;;;;;13.57;38.00;94047.53;2054019;69;20157;-76
2021/03/28 08:57:18;;;;;;;2.85;2.22;;;;;;;13.62;35.21;94043.63;2054001;70;20157;-76
2021/03/28 08:59:51;;;;;;;2.33;1.98;;;;;;;14.65;34.80;94042.88;2054121;70;20697;-77
2021/03/28 09:02:28;;;;;;;;;;;;;;;15.85;33.97;94042.19;2054185;70;20160;-76
2021/03/28 09:05:27;;;;;;;4.88;1.80;;;;;;;15.35;33.14;94034.75;2050836;70;20506;-76
2021/03/28 09:08:10;;;;;;;2.72;1.60;;;;;;;15.57;32.64;94024.06;2053486;70;20243;-75
2021/03/28 09:10:42;;;;;;;3.08;1.90;;;;;;;14.35;33.64;94030.22;2053997;69;20229;-75
2021/03/28 09:13:28;;;;;;;3.07;1.90;;;;;;;16.73;31.57;94022.66;2061401;69;20188;-77
2021/03/28 09:16:09;;;;;;;4.32;2.13;;;;;;;16.82;31.71;94032.44;2061513;69;20282;-77
2021/03/28 09:18:35;;;;;;;5.22;2.70;;;;;;;16.01;31.02;94026.13;2061699;69;20156;-78
2021/03/28 09:21:13;;;;;;;4.07;2.35;;;;;;;16.04;31.67;94020.59;2061357;69;20227;-78
2021/03/28 09:24:01;;;;;;;3.05;2.03;;;;;;;14.97;32.31;94022.34;2061290;69;20217;-77
2021/03/28 09:26:35;;;;;;;3.45;1.80;;;;;;;15.93;30.01;94022.06;2061583;69;20608;-76
2021/03/28 09:29:35;;;;;;;3.00;1.45;;;;;;;17.44;29.90;94013.88;2061378;69;20147;-77
2021/03/28 09:32:26;;;;;;;3.53;1.40;;;;;;;17.16;28.31;94010.91;2061476;69;20153;-77
2021/03/28 09:35:17;;;;;;;3.95;1.60;;;;;;;15.76;29.66;94008.97;2061384;69;20148;-82
2021/03/28 09:38:09;;;;;;;2.50;1.40;;;;;;;17.97;28.05;94014.72;2061353;69;20604;-76
2021/03/28 09:40:50;;;;;;;3.40;1.70;;;;;;;16.24;29.74;94008.34;2061347;69;20236;-77
2021/03/28 09:43:32;;;;;;;2.97;1.65;;;;;;;16.06;29.46;94000.81;2061840;69;20236;-77
2021/03/28 09:46:25;;;;;;;3.50;1.50;;;;;;;17.13;28.54;94005.72;2061718;69;20232;-77
2021/03/28 09:49:03;;;;;;;2.15;1.55;;;;;;;16.52;28.89;93997.22;2061837;69;20196;-76
2021/03/28 09:51:34;;;;;;;1.83;1.50;;;;;;;17.30;28.07;93996.75;2061690;69;20295;-77
2021/03/28 09:54:15;;;;;;;4.13;1.90;;;;;;;20.07;26.15;94001.72;2061533;69;20149;-76
2021/03/28 09:57:13;;;;;;;4.53;1.60;;;;;;;20.87;25.18;93999.53;2061865;69;20213;-73
2021/03/28 10:00:17;;;;;;;3.05;1.70;;;;;;;20.60;25.72;94009.09;2061578;69;20208;-75
2021/03/28 10:03:17;;;;;;;3.78;1.73;;;;;;;20.23;27.54;93995.97;2061633;69;20145;-75
2021/03/28 10:05:45;;;;;;;2.65;1.63;;;;;;;20.18;23.43;94002.91;2061658;69;20149;-79
2021/03/28 10:08:23;;;;;;;2.03;1.33;;;;;;;20.00;24.96;93994.22;2061557;69;20200;-78
2021/03/28 10:10:52;;;;;;;3.22;1.88;;;;;;;21.38;23.95;94001.69;2061749;69;20168;-77
2021/03/28 10:13:43;;;;;;;2.65;1.67;;;;;;;21.50;24.48;93994.34;2062621;69;20156;-76
2021/03/28 10:16:12;;;;;;;2.58;1.55;;;;;;;21.05;24.19;93995.31;2064138;69;20244;-77
2021/03/28 10:18:37;;;;;;;2.63;1.60;;;;;;;21.31;23.84;93992.88;2064221;69;20852;-76
2021/03/28 10:21:35;;;;;;;2.47;1.70;;;;;;;21.11;25.41;93986.25;2064384;69;20144;-76
2021/03/28 10:24:38;;;;;;;3.20;1.73;;;;;;;21.40;22.99;93988.22;2064352;69;20245;-76
2021/03/28 10:27:15;;;;;;;2.45;1.50;;;;;;;21.87;23.79;93986.47;2064714;69;20170;-76
2021/03/28 10:29:55;;;;;;;4.03;1.73;;;;;;;20.55;22.37;93982.44;2064868;69;20184;-74
2021/03/28 10:32:53;;;;;;;1.50;1.40;;;;;;;19.30;24.69;93979.50;2064749;69;20601;-73
2021/03/28 10:35:57;;;;;;;2.63;1.75;;;;;;;21.17;23.65;93971.47;2064616;69;20188;-74
2021/03/28 10:38:31;;;;;;;3.13;1.65;;;;;;;21.28;21.90;93976.94;2064000;69;20164;-76
2021/03/28 10:41:03;;;;;;;2.15;1.92;;;;;;;23.10;21.28;93972.38;2065117;69;20367;-74
2021/03/28 10:43:37;;;;;;;3.67;2.45;;;;;;;22.82;21.44;93966.34;2067588;69;20596;-75
2021/03/28 10:46:31;;;;;;;2.67;1.58;;;;;;;24.64;18.85;93960.63;2066839;69;20136;-75
2021/03/28 10:49:15;;;;;;;;;;;;;;;26.98;17.41;93971.28;2067243;69;20604;-75
2021/03/28 10:52:23;;;;;;;3.80;2.80;;;;;;;25.96;16.99;93961.19;2067642;69;20113;-76
2021/03/28 10:55:30;;;;;;;5.22;4.00;;;;;;;26.28;17.11;93955.41;2065671;69;20184;-76
2021/03/28 10:57:59;;;;;;;3.88;3.45;;;;;;;27.46;16.16;93959.19;2067777;69;20167;-76
2021/03/28 11:01:09;;;;;;;3.72;2.42;;;;;;;26.41;17.15;93950.63;2067678;69;20133;-75
2021/03/28 11:04:09;;;;;;;2.10;1.80;;;;;;;27.30;16.61;93953.84;2066974;69;20273;-76
2021/03/28 11:06:49;;;;;;;2.00;1.80;;;;;;;28.72;15.72;93946.63;2068087;69;20172;-73
2021/03/28 11:09:52;;;;;;;3.92;3.55;;;;;;;33.40;13.10;93951.94;2067727;69;20141;-73
2021/03/28 11:12:36;;;;;;;3.85;2.10;;;;;;;30.26;13.36;93937.94;2067934;69;20600;-73
2021/03/28 11:15:33;;;;;;;6.10;5.60;;;;;;;30.71;13.32;93929.50;2068253;69;20139;-74
2021/03/28 11:18:18;;;;;;;3.10;2.17;;;;;;;33.93;11.87;93930.41;2068105;69;20165;-72
2021/03/28 11:20:52;;;;;;;1.83;1.58;;;;;;;34.22;11.23;93943.31;2068148;69;20183;-71
2021/03/28 11:23:38;;;;;;;2.55;1.50;;;;;;;33.43;13.00;93923.47;2068054;69;20168;-72
2021/03/28 11:26:34;;;;;;;3.88;1.67;;;;;;;36.76;11.18;93925.91;2068094;69;20332;-72
2021/03/28 11:29:37;;;;;;;3.58;2.00;;;;;;;35.98;11.35;93924.34;2064801;69;20149;-72
2021/03/28 11:32:25;;;;;;;1.85;1.75;;;;;;;38.69;10.04;93920.75;2068006;69;20202;-75
2021/03/28 11:35:05;;;;;;;2.47;2.22;;;;;;;36.38;10.60;93908.28;2068073;69;20184;-73
2021/03/28 11:37:51;;;;;;;2.03;1.88;;;;;;;31.96;12.09;93898.47;2064680;69;20160;-74
2021/03/28 11:40:25;;;;;;;1.63;1.50;;;;;;;38.74;10.13;93913.25;2067788;69;20175;-73
2021/03/28 11:43:06;;;;;;;3.08;1.80;;;;;;;38.64;10.06;93908.38;2068026;69;20184;-71
2021/03/28 11:45:48;;;;;;;2.63;1.80;;;;;;;40.93;8.92;93904.19;2068069;69;20165;-72
2021/03/28 11:48:44;;;;;;;2.30;1.80;;;;;;;39.44;10.00;93903.19;2068067;69;20673;-77
2021/03/28 11:51:25;;;;;;;7.00;6.50;;;;;;;38.48;9.07;93902.22;2068080;69;20205;-76
2021/03/28 11:53:54;;;;;;;2.63;2.42;;;;;;;34.75;11.29;93889.44;2067793;69;20696;-75
2021/03/28 11:57:00;;;;;;;2.35;2.25;;;;;;;33.42;11.21;93876.03;2068005;69;20155;-77
2021/03/28 11:59:35;;;;;;;1.95;1.63;;;;;;;32.43;11.64;93865.59;2056261;69;20184;-75
2021/03/28 12:02:21;;;;;;;2.38;1.45;;;;;;;36.89;10.35;93877.25;2067852;69;20176;-76
2021/03/28 12:05:10;;;;;;;1.63;1.30;;;;;;;39.86;9.28;93877.59;2068045;69;20714;-76
2021/03/28 12:07:40;;;;;;;2.10;1.60;;;;;;;37.46;10.40;93872.38;2061340;69;20142;-78
2021/03/28 12:10:05;;;;;;;2.45;1.70;;;;;;;33.23;11.63;93857.94;2067930;69;20140;-78
2021/03/28 12:12:37;;;;;;;1.30;1.20;;;;;;;32.46;12.12;93846.66;2067982;69;20219;-76
2021/03/28 12:15:41;;;;;;;2.08;1.40;;;;;;;36.93;10.09;93847.09;2068306;69;20157;-76
2021/03/28 12:18:36;;;;;;;2.38;1.30;;;;;;;33.76;11.44;93839.31;2065457;69;20160;-79
2021/03/28 12:21:05;;;;;;;3.40;1.77;;;;;;;35.53;10.48;93839.38;2067907;69;20145;-75
2021/03/28 12:23:48;;;;;;;1.80;1.20;;;;;;;36.92;9.68;93836.84;2067986;69;20572;-75
2021/03/28 12:26:22;;;;;;;2.08;1.08;;;;;;;41.24;7.91;93844.72;2067938;69;20164;-73
2021/03/28 12:29:14;;;;;;;1.08;0.85;;;;;;;31.63;11.80;93822.78;2067937;69;20230;-78
2021/03/28 12:31:50;;;;;;;2.20;1.20;;;;;;;34.97;10.91;93821.91;2067744;69;20160;-77
2021/03/28 12:34:27;;;;;;;3.28;1.20;;;;;;;34.35;10.69;93821.19;2067868;69;20644;-79
2021/03/28 12:37:10;;;;;;;2.00;1.35;;;;;;;36.27;9.85;93818.34;2067953;69;20152;-76
2021/03/28 12:39:55;;;;;;;1.42;1.10;;;;;;;39.42;8.97;93826.69;2067763;69;20680;-80
2021/03/28 12:42:24;;;;;;;1.38;1.05;;;;;;;37.86;9.74;93811.94;2067603;69;20191;-74
2021/03/28 12:45:11;;;;;;;1.30;1.10;;;;;;;34.75;10.57;93804.66;2067755;69;20149;-76
2021/03/28 12:47:48;;;;;;;3.58;1.10;;;;;;;36.85;9.39;93807.63;2064503;69;20152;-77
2021/03/28 12:50:14;;;;;;;1.98;1.02;;;;;;;36.86;9.56;93803.19;2067986;69;20191;-75
2021/03/28 12:52:52;;;;;;;2.58;0.95;;;;;;;38.07;9.01;93801.06;2067883;69;20176;-75
2021/03/28 12:55:29;;;;;;;3.17;1.10;;;;;;;35.16;9.54;93790.19;2067035;69;20161;-75
2021/03/28 12:58:08;;;;;;;1.55;1.00;;;;;;;37.28;9.08;93794.22;2067034;69;20161;-75
2021/03/28 13:00:40;;;;;;;1.30;1.00;;;;;;;35.92;9.20;93789.63;2067028;69;20137;-74
2021/03/28 13:03:25;;;;;;;1.73;1.10;;;;;;;34.48;9.54;93783.78;2067007;69;20144;-78